Time;durP1;ratioP1;P1;durP2;ratioP2;P2;SDS_P1;SDS_P2;PMS_P1;PMS_P2;Temp;Humidity;BMP_temperature;BMP_pressure;BME280_temperature;BME280_humidity;BME280_pressure;Samples;Min_cycle;Max_cycle;Signal;HPM_P1;HPM_P2
2022/12/11 00:01:23;;;;;;;27.5;10.1;;;;;;;;;;;;;-78
2022/12/11 00:02:32;;;;;;;;;;;;;;;1.09;98.92773;101201.5;;;;-77
2022/12/11 00:07:32;;;;;;;;;;;;;;;1.08;98.80957;101201.7;;;;-77
2022/12/11 00:12:32;;;;;;;;;;;;;;;1.08;98.74512;101203.3;;;;-76
2022/12/11 00:17:32;;;;;;;;;;;;;;;1.1;98.74902;101199.5;;;;-77
2022/12/11 00:22:32;;;;;;;;;;;;;;;1.08;98.90625;101198.6;;;;-76
2022/12/11 00:27:32;;;;;;;;;;;;;;;1.09;99.25098;101202.1;;;;-76
2022/12/11 00:31:20;;;;;;;28;10.3;;;;;;;;;;;;;-77
2022/12/11 00:32:32;;;;;;;;;;;;;;;1.08;99.0791;101201.7;;;;-76
2022/12/11 00:37:32;;;;;;;;;;;;;;;1.08;99.1543;101207.7;;;;-78
2022/12/11 00:42:32;;;;;;;;;;;;;;;1.09;99.01465;101209.6;;;;-76
2022/12/11 00:47:32;;;;;;;;;;;;;;;1.09;98.94922;101206.5;;;;-76
2022/12/11 00:52:33;;;;;;;;;;;;;;;1.1;99.28516;101203.1;;;;-77
2022/12/11 00:57:32;;;;;;;;;;;;;;;1.1;99.31738;101199.9;;;;-76
2022/12/11 01:01:20;;;;;;;26.1;9.3;;;;;;;;;;;;;-77
2022/12/11 01:02:32;;;;;;;;;;;;;;;1.11;98.90039;101204.7;;;;-77
2022/12/11 01:07:32;;;;;;;;;;;;;;;1.11;99.30078;101197.2;;;;-77
2022/12/11 01:12:32;;;;;;;;;;;;;;;1.09;99.33691;101193;;;;-77
2022/12/11 01:17:33;;;;;;;;;;;;;;;1.1;99.09375;101191.8;;;;-77
2022/12/11 01:22:32;;;;;;;;;;;;;;;1.1;98.91113;101188.2;;;;-77
2022/12/11 01:27:32;;;;;;;;;;;;;;;1.11;98.75098;101192;;;;-76
2022/12/11 01:31:19;;;;;;;23.2;9.2;;;;;;;;;;;;;-76
2022/12/11 01:32:32;;;;;;;;;;;;;;;1.12;98.64551;101191.4;;;;-75
2022/12/11 01:37:32;;;;;;;;;;;;;;;1.12;98.5918;101189.2;;;;-76
2022/12/11 01:42:35;;;;;;;;;;;;;;;1.12;98.62207;101191.4;;;;-76
2022/12/11 01:47:32;;;;;;;;;;;;;;;1.13;98.68066;101192.9;;;;-78
2022/12/11 01:52:32;;;;;;;;;;;;;;;1.13;98.55078;101197.1;;;;-76
2022/12/11 01:57:32;;;;;;;;;;;;;;;1.14;98.60742;101194.6;;;;-76
2022/12/11 02:01:21;;;;;;;28.3;9.7;;;;;;;;;;;;;-78
2022/12/11 02:02:34;;;;;;;;;;;;;;;1.15;98.56836;101191.3;;;;-80
2022/12/11 02:07:33;;;;;;;;;;;;;;;1.15;98.42871;101193.6;;;;-76
2022/12/11 02:12:35;;;;;;;;;;;;;;;1.15;98.4502;101185.8;;;;-76
2022/12/11 02:17:36;;;;;;;;;;;;;;;1.16;98.4502;101186.4;;;;-76
2022/12/11 02:22:41;;;;;;;;;;;;;;;1.18;99.03516;101178.5;;;;-76
2022/12/11 02:27:39;;;;;;;;;;;;;;;1.18;99.12109;101173.2;;;;-77
2022/12/11 02:31:16;;;;;;;21;9.7;;;;;;;;;;;;;-77
2022/12/11 02:32:35;;;;;;;;;;;;;;;1.19;98.76855;101167.1;;;;-77
2022/12/11 02:37:35;;;;;;;;;;;;;;;1.19;98.80078;101165.1;;;;-76
2022/12/11 02:42:34;;;;;;;;;;;;;;;1.21;98.83887;101166.6;;;;-77
2022/12/11 02:47:34;;;;;;;;;;;;;;;1.24;98.85645;101169.9;;;;-77
2022/12/11 02:52:34;;;;;;;;;;;;;;;1.23;98.49707;101165.5;;;;-76
2022/12/11 02:57:36;;;;;;;;;;;;;;;1.23;98.55469;101159.7;;;;-77
2022/12/11 03:01:14;;;;;;;22.2;9.7;;;;;;;;;;;;;-76
2022/12/11 03:02:32;;;;;;;;;;;;;;;1.23;98.4668;101154.9;;;;-76
2022/12/11 03:07:35;;;;;;;;;;;;;;;1.25;98.4707;101151.4;;;;-77
2022/12/11 03:12:33;;;;;;;;;;;;;;;1.24;98.44727;101146.5;;;;-77
2022/12/11 03:17:35;;;;;;;;;;;;;;;1.26;98.56934;101142.5;;;;-77
2022/12/11 03:22:37;;;;;;;;;;;;;;;1.26;98.53711;101138.5;;;;-77
2022/12/11 03:27:36;;;;;;;;;;;;;;;1.26;98.52637;101142.3;;;;-77
2022/12/11 03:31:15;;;;;;;23.8;9.6;;;;;;;;;;;;;-77
2022/12/11 03:32:34;;;;;;;;;;;;;;;1.26;98.32227;101135.6;;;;-77
2022/12/11 03:37:34;;;;;;;;;;;;;;;1.27;98.35645;101144.1;;;;-77
2022/12/11 03:42:32;;;;;;;;;;;;;;;1.27;98.43164;101143.8;;;;-76
2022/12/11 03:47:32;;;;;;;;;;;;;;;1.27;98.31348;101143.9;;;;-75
2022/12/11 03:57:40;;;;;;;;;;;;;;;1.26;98.26855;101142.8;;;;-78
2022/12/11 04:01:44;;;;;;;;;;;;;;;1.36;98.41992;101138.6;;;;-76
2022/12/11 04:08:43;;;;;;;;;;;;;;;1.28;98.2832;101129.7;;;;-76
2022/12/11 04:12:59;;;;;;;;;;;;;;;1.41;97.9375;101132.6;;;;-76
2022/12/11 04:15:00;;;;;;;;;;;;;;;1.39;98.10352;101129.8;;;;-76
2022/12/11 04:26:22;;;;;;;;;;;;;;;1.28;98.18652;101131.8;;;;-77
2022/12/11 04:31:13;;;;;;;21.7;9.6;;;;;;;;;;;;;-77
2022/12/11 04:31:24;;;;;;;;;;;;;;;1.26;98.12793;101133.3;;;;-75
2022/12/11 04:36:36;;;;;;;;;;;;;;;1.28;98.30664;101131;;;;-76
2022/12/11 04:41:21;;;;;;;;;;;;;;;1.26;98.31152;101125.2;;;;-77
2022/12/11 04:46:22;;;;;;;;;;;;;;;1.26;98.2793;101124.2;;;;-77
2022/12/11 04:51:22;;;;;;;;;;;;;;;1.25;98.22559;101124.4;;;;-77
2022/12/11 04:56:23;;;;;;;;;;;;;;;1.25;98.17969;101117.3;;;;-77
2022/12/11 05:02:20;;;;;;;;;;;;;;;1.24;98.20996;101112.3;;;;-76
2022/12/11 05:06:27;;;;;;;;;;;;;;;1.26;98.11719;101107.3;;;;-76
2022/12/11 05:11:34;;;;;;;;;;;;;;;1.26;98.03125;101108.7;;;;-76
2022/12/11 05:21:56;;;;;;;;;;;;;;;1.41;97.82715;101113.9;;;;-76
2022/12/11 05:25:43;;;;;;;;;;;;;;;1.26;98.06348;101114.6;;;;-76
2022/12/11 05:30:55;;;;;;;;;;;;;;;1.25;98.0957;101115.4;;;;-78
2022/12/11 05:31:28;;;;;;;18.9;7.6;;;;;;;;;;;;;-78
2022/12/11 05:40:41;;;;;;;;;;;;;;;1.25;98.38672;101114.6;;;;-77
2022/12/11 05:46:09;;;;;;;;;;;;;;;1.34;98.21191;101107.8;;;;-77
2022/12/11 05:48:57;;;;;;;;;;;;;;;1.25;98.26855;101100.5;;;;-76
2022/12/11 05:53:52;;;;;;;;;;;;;;;1.25;98.44922;101096.5;;;;-76
2022/12/11 05:58:50;;;;;;;;;;;;;;;1.25;98.28809;101095.7;;;;-78
2022/12/11 06:01:12;;;;;;;22.2;8.6;;;;;;;;;;;;;-76
2022/12/11 06:03:51;;;;;;;;;;;;;;;1.25;98.49219;101092.3;;;;-77
2022/12/11 06:08:54;;;;;;;;;;;;;;;1.24;98.43652;101086.1;;;;-77
2022/12/11 06:13:52;;;;;;;;;;;;;;;1.24;98.4043;101080.5;;;;-76
2022/12/11 06:18:54;;;;;;;;;;;;;;;1.23;98.43262;101081.6;;;;-77
2022/12/11 06:23:51;;;;;;;;;;;;;;;1.21;98.8584;101084.8;;;;-76
2022/12/11 06:28:53;;;;;;;;;;;;;;;1.19;98.55273;101084.3;;;;-76
2022/12/11 06:31:14;;;;;;;18.8;8.3;;;;;;;;;;;;;-77
2022/12/11 06:34:04;;;;;;;;;;;;;;;1.17;98.52734;101079.4;;;;-75
2022/12/11 06:38:57;;;;;;;;;;;;;;;1.18;98.63672;101086.9;;;;-77
2022/12/11 06:43:51;;;;;;;;;;;;;;;1.15;98.43652;101086.8;;;;-77
2022/12/11 06:48:53;;;;;;;;;;;;;;;1.13;98.31445;101084.1;;;;-77
2022/12/11 06:54:04;;;;;;;;;;;;;;;1.14;98.20898;101091.6;;;;-77
2022/12/11 06:58:56;;;;;;;;;;;;;;;1.12;98.38574;101100.6;;;;-76
2022/12/11 07:01:22;;;;;;;21.4;8.5;;;;;;;;;;;;;-76
2022/12/11 07:03:55;;;;;;;;;;;;;;;1.1;98.40234;101112.4;;;;-77
2022/12/11 07:08:50;;;;;;;;;;;;;;;1.1;98.39258;101116.9;;;;-78
2022/12/11 07:13:53;;;;;;;;;;;;;;;1.12;98.21582;101122.7;;;;-77
2022/12/11 07:22:54;;;;;;;;;;;;;;;;;;;;;
2022/12/11 07:27:16;;;;;;;;;;;;;;;1.08;98.35742;101124.6;;;;-77
2022/12/11 07:31:07;;;;;;;19.5;8.2;;;;;;;;;;;;;-78
2022/12/11 07:32:14;;;;;;;;;;;;;;;1.08;98.41113;101127.9;;;;-77
2022/12/11 07:37:14;;;;;;;;;;;;;;;1.07;98.23535;101127.9;;;;-76
2022/12/11 07:42:16;;;;;;;;;;;;;;;1.06;98.21191;101130.2;;;;-76
2022/12/11 07:47:15;;;;;;;;;;;;;;;1.03;98.30273;101121.3;;;;-76
2022/12/11 07:52:14;;;;;;;;;;;;;;;0.99;98.41016;101121.7;;;;-78
2022/12/11 07:57:14;;;;;;;;;;;;;;;0.94;98.32422;101122.6;;;;-77
2022/12/11 08:01:09;;;;;;;17.4;7.5;;;;;;;;;;;;;-76
2022/12/11 08:02:16;;;;;;;;;;;;;;;0.88;98.13965;101121.4;;;;-77
2022/12/11 08:07:14;;;;;;;;;;;;;;;0.8;98.07617;101126.3;;;;-77
2022/12/11 08:12:15;;;;;;;;;;;;;;;0.73;98.07227;101128.1;;;;-77
2022/12/11 08:17:14;;;;;;;;;;;;;;;0.71;98.12109;101131.7;;;;-76
2022/12/11 08:22:14;;;;;;;;;;;;;;;0.69;98.20117;101135.6;;;;-77
2022/12/11 08:27:35;;;;;;;;;;;;;;;0.78;98.10449;101141.8;;;;-75
2022/12/11 08:31:24;;;;;;;17;7;;;;;;;;;;;;;-76
2022/12/11 08:31:44;;;;;;;;;;;;;;;0.7;98.10645;101141.8;;;;-76
2022/12/11 08:36:31;;;;;;;;;;;;;;;0.72;98.11328;101148.3;;;;-77
2022/12/11 08:41:27;;;;;;;;;;;;;;;0.74;98.10645;101158.5;;;;-77
2022/12/11 08:46:39;;;;;;;;;;;;;;;0.75;98.07617;101160.1;;;;-76
2022/12/11 08:51:49;;;;;;;;;;;;;;;0.77;98.13379;101157;;;;-76
2022/12/11 08:56:24;;;;;;;;;;;;;;;0.78;98.16016;101148.8;;;;-77
2022/12/11 09:01:12;;;;;;;15.5;6.3;;;;;;;;;;;;;-76
2022/12/11 09:01:32;;;;;;;;;;;;;;;0.79;98.05273;101143.8;;;;-76
2022/12/11 09:06:21;;;;;;;;;;;;;;;0.87;97.91992;101151.1;;;;-76
2022/12/11 09:11:21;;;;;;;;;;;;;;;0.9;97.99316;101141.5;;;;-77
2022/12/11 09:16:21;;;;;;;;;;;;;;;0.96;97.89844;101139.9;;;;-77
2022/12/11 09:21:21;;;;;;;;;;;;;;;1.02;97.79395;101137.2;;;;-77
2022/12/11 09:26:21;;;;;;;;;;;;;;;1.08;97.90527;101134.8;;;;-77
2022/12/11 09:31:04;;;;;;;18.8;7.1;;;;;;;;;;;;;-76
2022/12/11 09:31:23;;;;;;;;;;;;;;;1.14;97.81055;101132.8;;;;-76
2022/12/11 09:36:21;;;;;;;;;;;;;;;1.17;97.95898;101132.9;;;;-76
2022/12/11 09:41:34;;;;;;;;;;;;;;;1.23;97.96094;101128.3;;;;-77
2022/12/11 09:46:20;;;;;;;;;;;;;;;1.28;97.88672;101125.5;;;;-76
2022/12/11 09:51:23;;;;;;;;;;;;;;;1.34;97.74805;101127.1;;;;-76
2022/12/11 09:56:25;;;;;;;;;;;;;;;1.4;97.74121;101135.2;;;;-76
2022/12/11 10:01:07;;;;;;;18.8;7.4;;;;;;;;;;;;;-76
2022/12/11 10:01:25;;;;;;;;;;;;;;;1.49;98.02051;101138.7;;;;-76
2022/12/11 10:06:31;;;;;;;;;;;;;;;1.52;97.84375;101131;;;;-77
2022/12/11 10:11:33;;;;;;;;;;;;;;;1.57;97.43359;101131.1;;;;-76
2022/12/11 10:16:22;;;;;;;;;;;;;;;1.65;97.53809;101140.3;;;;-77
2022/12/11 10:21:22;;;;;;;;;;;;;;;1.7;97.89551;101122.5;;;;-77
2022/12/11 10:26:21;;;;;;;;;;;;;;;1.72;97.7168;101122;;;;-77
2022/12/11 10:31:06;;;;;;;16.9;6.9;;;;;;;;;;;;;-76
2022/12/11 10:31:27;;;;;;;;;;;;;;;1.75;97.51855;101123.6;;;;-75
2022/12/11 10:36:22;;;;;;;;;;;;;;;1.77;96.87305;101123;;;;-76
2022/12/11 10:41:23;;;;;;;;;;;;;;;1.78;97.2998;101115;;;;-76
2022/12/11 10:46:22;;;;;;;;;;;;;;;1.81;97.06836;101112.6;;;;-77
2022/12/11 10:51:22;;;;;;;;;;;;;;;1.87;97.17871;101111.3;;;;-76
2022/12/11 10:56:27;;;;;;;;;;;;;;;1.89;97.39844;101106.1;;;;-77
2022/12/11 11:01:10;;;;;;;13.9;6;;;;;;;;;;;;;-77
2022/12/11 11:01:26;;;;;;;;;;;;;;;1.88;96.56543;101107.8;;;;-77
2022/12/11 11:06:22;;;;;;;;;;;;;;;1.93;96.97461;101107.4;;;;-77
2022/12/11 11:11:23;;;;;;;;;;;;;;;1.94;96.83887;101103.3;;;;-78
2022/12/11 11:16:22;;;;;;;;;;;;;;;1.95;96.18262;101102.6;;;;-76
2022/12/11 11:21:24;;;;;;;;;;;;;;;2;96.79883;101100.4;;;;-77
2022/12/11 11:26:22;;;;;;;;;;;;;;;2;96.12988;101096;;;;-77
2022/12/11 11:31:05;;;;;;;18;7.1;;;;;;;;;;;;;-76
2022/12/11 11:31:21;;;;;;;;;;;;;;;2.03;96.43652;101097.5;;;;-75
2022/12/11 11:36:25;;;;;;;;;;;;;;;2.05;96.30176;101091;;;;-76
2022/12/11 11:41:28;;;;;;;;;;;;;;;2.07;96.31641;101079.9;;;;-76
2022/12/11 11:46:50;;;;;;;;;;;;;;;2.1;96.4541;101076.2;;;;-76
2022/12/11 11:51:25;;;;;;;;;;;;;;;2.12;95.70117;101071.5;;;;-78
2022/12/11 11:56:30;;;;;;;;;;;;;;;2.12;95.6377;101070.7;;;;-76
2022/12/11 12:01:00;;;;;;;20.7;7.7;;;;;;;;;;;;;-77
2022/12/11 12:01:24;;;;;;;;;;;;;;;2.14;96.00977;101079.9;;;;-76
2022/12/11 12:06:23;;;;;;;;;;;;;;;2.16;95.65723;101083.1;;;;-77
2022/12/11 12:11:24;;;;;;;;;;;;;;;2.16;95.33301;101085.7;;;;-77
2022/12/11 12:16:24;;;;;;;;;;;;;;;2.16;95.63574;101079.1;;;;-77
2022/12/11 12:21:24;;;;;;;;;;;;;;;2.16;95.45215;101078.7;;;;-77
2022/12/11 12:26:26;;;;;;;;;;;;;;;2.17;95.41113;101075.9;;;;-77
2022/12/11 12:31:08;;;;;;;17.9;7.5;;;;;;;;;;;;;-77
2022/12/11 12:31:30;;;;;;;;;;;;;;;2.16;94.84668;101073.8;;;;-77
2022/12/11 12:36:27;;;;;;;;;;;;;;;2.19;95.33887;101069.2;;;;-78
2022/12/11 12:41:23;;;;;;;;;;;;;;;2.19;94.85254;101067.8;;;;-78
2022/12/11 12:46:26;;;;;;;;;;;;;;;2.2;94.84375;101066.3;;;;-76
2022/12/11 12:51:21;;;;;;;;;;;;;;;2.22;95.42285;101069.2;;;;-77
2022/12/11 12:56:22;;;;;;;;;;;;;;;2.22;95.30176;101061.8;;;;-77
2022/12/11 13:01:09;;;;;;;17.5;7.1;;;;;;;;;;;;;-77
2022/12/11 13:01:23;;;;;;;;;;;;;;;2.22;94.78516;101063.7;;;;-77
2022/12/11 13:06:30;;;;;;;;;;;;;;;2.22;94.34277;101065.3;;;;-77
2022/12/11 13:11:21;;;;;;;;;;;;;;;2.24;94.34668;101058.5;;;;-77
2022/12/11 13:16:37;;;;;;;;;;;;;;;2.25;94.13184;101055.2;;;;-75
2022/12/11 13:21:31;;;;;;;;;;;;;;;2.25;94.2832;101058;;;;-77
2022/12/11 13:26:31;;;;;;;;;;;;;;;2.26;93.97168;101059.9;;;;-78
2022/12/11 13:31:06;;;;;;;18.7;7.2;;;;;;;;;;;;;-76
2022/12/11 13:31:38;;;;;;;;;;;;;;;2.27;93.85547;101059.9;;;;-77
2022/12/11 13:36:53;;;;;;;;;;;;;;;2.36;93.875;101063.3;;;;-76
2022/12/11 13:41:22;;;;;;;;;;;;;;;2.28;93.61914;101062.2;;;;-77
2022/12/11 13:46:23;;;;;;;;;;;;;;;2.28;93.93457;101061.9;;;;-76
2022/12/11 13:51:21;;;;;;;;;;;;;;;2.29;94.16211;101062.1;;;;-77
2022/12/11 13:56:47;;;;;;;;;;;;;;;2.38;94.04102;101064.3;;;;-76
2022/12/11 14:01:28;;;;;;;18;8.1;;;;;;;;;;;;;-77
2022/12/11 14:06:27;;;;;;;;;;;;;;;2.29;94.32422;101065.1;;;;-78
2022/12/11 14:11:12;;;;;;;;;;;;;;;2.42;93.98438;101064;;;;-75
2022/12/11 14:16:02;;;;;;;;;;;;;;;2.27;94.28711;101062.7;;;;-76
2022/12/11 14:20:57;;;;;;;;;;;;;;;2.27;94.61133;101056.9;;;;-76
2022/12/11 14:26:05;;;;;;;;;;;;;;;2.27;94.67676;101061;;;;-77
2022/12/11 14:30:54;;;;;;;;;;;;;;;2.24;95.33789;101058.4;;;;-76
2022/12/11 14:31:11;;;;;;;20.9;8.2;;;;;;;;;;;;;-76
2022/12/11 14:35:58;;;;;;;;;;;;;;;2.2;94.78125;101055.5;;;;-77
2022/12/11 14:40:59;;;;;;;;;;;;;;;2.17;94.91406;101060.5;;;;-77
2022/12/11 14:45:58;;;;;;;;;;;;;;;2.12;94.91211;101061.2;;;;-77
2022/12/11 14:51:00;;;;;;;;;;;;;;;2.06;94.9541;101067.7;;;;-77
2022/12/11 14:55:53;;;;;;;;;;;;;;;2;95.2666;101075.3;;;;-77
2022/12/11 15:00:59;;;;;;;;;;;;;;;1.99;95.5;101070.5;;;;-77
2022/12/11 15:01:09;;;;;;;19.7;7.8;;;;;;;;;;;;;-77
2022/12/11 15:05:56;;;;;;;;;;;;;;;1.94;95.40137;101077.6;;;;-76
2022/12/11 15:10:59;;;;;;;;;;;;;;;1.92;95.49414;101081.6;;;;-78
2022/12/11 15:15:51;;;;;;;;;;;;;;;1.88;95.60547;101075.2;;;;-75
2022/12/11 15:20:53;;;;;;;;;;;;;;;1.85;95.66406;101073.8;;;;-76
2022/12/11 15:25:53;;;;;;;;;;;;;;;1.8;95.64063;101071.5;;;;-78
2022/12/11 15:30:57;;;;;;;;;;;;;;;1.72;95.70898;101072.7;;;;-77
2022/12/11 15:31:08;;;;;;;22;8.5;;;;;;;;;;;;;-77
2022/12/11 15:35:59;;;;;;;;;;;;;;;1.62;95.68652;101075.1;;;;-77
2022/12/11 15:41:00;;;;;;;;;;;;;;;1.52;95.81543;101078.5;;;;-77
2022/12/11 15:46:13;;;;;;;;;;;;;;;1.41;95.87695;101078.4;;;;-77
2022/12/11 15:50:51;;;;;;;;;;;;;;;1.28;95.80762;101080.1;;;;-78
2022/12/11 15:55:56;;;;;;;;;;;;;;;1.15;95.83105;101087.1;;;;-76
2022/12/11 16:01:10;;;;;;;;;;;;;;;1.06;95.85547;101092.3;;;;-75
2022/12/11 16:01:26;;;;;;;19.9;8;;;;;;;;;;;;;-75
2022/12/11 16:05:52;;;;;;;;;;;;;;;0.97;95.95215;101096.2;;;;-77
2022/12/11 16:10:57;;;;;;;;;;;;;;;0.84;95.90137;101098.9;;;;-75
2022/12/11 16:26:02;;;;;;;;;;;;;;;0.68;95.9834;101103.2;;;;-77
2022/12/11 16:30:50;;;;;;;;;;;;;;;0.61;95.92578;101104.2;;;;-77
2022/12/11 16:31:01;;;;;;;19.4;7.9;;;;;;;;;;;;;-77
2022/12/11 16:40:52;;;;;;;;;;;;;;;0.48;95.87402;101097.1;;;;-75
2022/12/11 16:45:49;;;;;;;;;;;;;;;0.41;96.01074;101103.3;;;;-77
2022/12/11 16:51:00;;;;;;;;;;;;;;;0.32;96.11914;101103;;;;-77
2022/12/11 16:55:49;;;;;;;;;;;;;;;0.3;96.29785;101110.7;;;;-77
2022/12/11 17:00:49;;;;;;;;;;;;;;;0.22;96.08594;101110;;;;-76
2022/12/11 17:01:00;;;;;;;22.9;8.1;;;;;;;;;;;;;-76
2022/12/11 17:05:51;;;;;;;;;;;;;;;0.23;96.03418;101112.9;;;;-77
2022/12/11 17:10:49;;;;;;;;;;;;;;;0.26;96.06152;101114.2;;;;-77
2022/12/11 17:15:49;;;;;;;;;;;;;;;0.24;96.14355;101112.1;;;;-77
2022/12/11 17:20:49;;;;;;;;;;;;;;;0.28;96.18555;101117.3;;;;-77
2022/12/11 17:25:49;;;;;;;;;;;;;;;0.28;96.27246;101118.6;;;;-76
2022/12/11 17:30:51;;;;;;;;;;;;;;;0.32;96.25684;101120.9;;;;-77
2022/12/11 17:31:03;;;;;;;19.4;7.7;;;;;;;;;;;;;-77
2022/12/11 17:35:49;;;;;;;;;;;;;;;0.36;96.33105;101119.3;;;;-77
2022/12/11 17:40:50;;;;;;;;;;;;;;;0.41;96.09668;101116.8;;;;-77
2022/12/11 17:45:51;;;;;;;;;;;;;;;0.41;96.47266;101112;;;;-78
2022/12/11 17:51:00;;;;;;;;;;;;;;;0.47;96.28027;101113.4;;;;-76
2022/12/11 17:55:53;;;;;;;;;;;;;;;0.47;96.24805;101112.4;;;;-77
2022/12/11 18:00:50;;;;;;;;;;;;;;;0.5;96.22461;101111.1;;;;-77
2022/12/11 18:01:02;;;;;;;23.8;8.1;;;;;;;;;;;;;-77
2022/12/11 18:05:50;;;;;;;;;;;;;;;0.54;96.17871;101114.8;;;;-76
2022/12/11 18:10:50;;;;;;;;;;;;;;;0.55;96.01953;101113.7;;;;-76
2022/12/11 18:16:04;;;;;;;;;;;;;;;0.54;96.03906;101114.5;;;;-77
2022/12/11 18:20:51;;;;;;;;;;;;;;;0.56;96.12012;101116.4;;;;-78
2022/12/11 18:25:51;;;;;;;;;;;;;;;0.59;96.27539;101115.6;;;;-77
2022/12/11 18:31:12;;;;;;;23.2;8.2;;;;;;;;;;;;;-76
2022/12/11 18:35:51;;;;;;;;;;;;;;;0.59;96.15625;101119.3;;;;-76
2022/12/11 18:40:52;;;;;;;;;;;;;;;0.63;96.19922;101118;;;;-77
2022/12/11 18:45:50;;;;;;;;;;;;;;;0.6;96.25586;101119.4;;;;-76
2022/12/11 18:50:53;;;;;;;;;;;;;;;0.61;96.02344;101119.6;;;;-77
2022/12/11 18:55:50;;;;;;;;;;;;;;;0.6;96.22363;101121.2;;;;-77
2022/12/11 19:00:49;;;;;;;22.2;8.9;;;;;;;;;;;;;-75
2022/12/11 19:01:01;;;;;;;;;;;;;;;0.58;96.17773;101120.4;;;;-75
2022/12/11 19:05:49;;;;;;;;;;;;;;;0.58;96.04688;101120.6;;;;-78
2022/12/11 19:10:49;;;;;;;;;;;;;;;0.56;96.07715;101122.3;;;;-77
2022/12/11 19:15:49;;;;;;;;;;;;;;;0.56;96.07715;101123.5;;;;-77
2022/12/11 19:20:49;;;;;;;;;;;;;;;0.57;96.0127;101121.6;;;;-77
2022/12/11 19:25:51;;;;;;;;;;;;;;;0.56;95.9375;101125;;;;-76
2022/12/11 19:30:51;;;;;;;23.5;9.2;;;;;;;;;;;;;-75
2022/12/11 19:31:07;;;;;;;;;;;;;;;0.55;95.90137;101124.9;;;;-75
2022/12/11 19:35:51;;;;;;;;;;;;;;;0.54;95.94238;101129.8;;;;-77
2022/12/11 19:45:52;;;;;;;;;;;;;;;0.5;95.93359;101132.9;;;;-77
2022/12/11 19:50:49;;;;;;;;;;;;;;;0.46;95.94531;101135.4;;;;-76
2022/12/11 19:55:56;;;;;;;;;;;;;;;0.44;95.87695;101131.3;;;;-77
2022/12/11 20:00:47;;;;;;;23.3;8.5;;;;;;;;;;;;;-76
2022/12/11 20:00:57;;;;;;;;;;;;;;;0.43;95.72363;101136.2;;;;-76
2022/12/11 20:05:49;;;;;;;;;;;;;;;0.4;95.65332;101133.8;;;;-76
2022/12/11 20:10:51;;;;;;;;;;;;;;;0.37;95.77441;101138.4;;;;-77
2022/12/11 20:15:50;;;;;;;;;;;;;;;0.38;95.68164;101139.8;;;;-76
2022/12/11 20:20:49;;;;;;;;;;;;;;;0.34;95.62891;101139.8;;;;-77
2022/12/11 20:25:49;;;;;;;;;;;;;;;0.33;95.49707;101136.4;;;;-76
2022/12/11 20:30:48;;;;;;;21.3;8.7;;;;;;;;;;;;;-76
2022/12/11 20:31:07;;;;;;;;;;;;;;;0.25;95.69434;101138.2;;;;-76
2022/12/11 20:35:49;;;;;;;;;;;;;;;0.26;95.61035;101131.4;;;;-77
2022/12/11 20:40:50;;;;;;;;;;;;;;;0.2;95.56348;101134.8;;;;-76
2022/12/11 20:45:53;;;;;;;;;;;;;;;0.21;95.52246;101136.9;;;;-77
2022/12/11 20:50:49;;;;;;;;;;;;;;;0.15;95.52344;101142.4;;;;-77
2022/12/11 20:55:49;;;;;;;;;;;;;;;0.18;95.43066;101147.5;;;;-77
2022/12/11 21:00:46;;;;;;;19.5;7.5;;;;;;;;;;;;;-77
2022/12/11 21:00:56;;;;;;;;;;;;;;;0.14;95.25098;101145.5;;;;-77
2022/12/11 21:05:49;;;;;;;;;;;;;;;0.11;95.26563;101147.1;;;;-77
2022/12/11 21:10:49;;;;;;;;;;;;;;;0.15;95.10156;101153.2;;;;-75
2022/12/11 21:15:51;;;;;;;;;;;;;;;0.12;95.04199;101157.9;;;;-77
2022/12/11 21:20:49;;;;;;;;;;;;;;;0.1;94.66016;101162.3;;;;-75
2022/12/11 21:25:50;;;;;;;;;;;;;;;0.13;94.74121;101160.1;;;;-77
2022/12/11 21:30:45;;;;;;;18.1;7;;;;;;;;;;;;;-76
2022/12/11 21:30:54;;;;;;;;;;;;;;;0.13;94.95605;101156.7;;;;-75
2022/12/11 21:35:55;;;;;;;;;;;;;;;0.14;94.83105;101159.9;;;;-77
2022/12/11 21:40:50;;;;;;;;;;;;;;;0.14;95.08887;101158;;;;-79
2022/12/11 21:46:06;;;;;;;;;;;;;;;0.17;95.00879;101161.5;;;;-77
2022/12/11 21:51:15;;;;;;;;;;;;;;;0.18;94.93652;101169.5;;;;-78
2022/12/11 22:00:49;;;;;;;16.6;6.9;;;;;;;;;;;;;-76
2022/12/11 22:01:12;;;;;;;;;;;;;;;0.18;94.76563;101172.2;;;;-76
2022/12/11 22:11:18;;;;;;;;;;;;;;;0.29;94.67188;101178.9;;;;-78
2022/12/11 22:15:48;;;;;;;;;;;;;;;0.18;94.58105;101177.9;;;;-77
2022/12/11 22:20:51;;;;;;;;;;;;;;;0.2;94.47754;101185;;;;-76
2022/12/11 22:25:48;;;;;;;;;;;;;;;0.22;94.53516;101188.2;;;;-76
2022/12/11 22:30:42;;;;;;;15.7;6.9;;;;;;;;;;;;;-77
2022/12/11 22:30:52;;;;;;;;;;;;;;;0.21;94.70508;101188.1;;;;-77
2022/12/11 22:35:48;;;;;;;;;;;;;;;0.23;94.49414;101192.2;;;;-76
2022/12/11 22:40:48;;;;;;;;;;;;;;;0.22;94.41895;101191.9;;;;-76
2022/12/11 22:45:48;;;;;;;;;;;;;;;0.22;94.30957;101195.8;;;;-76
2022/12/11 22:50:48;;;;;;;;;;;;;;;0.23;94.19727;101195.6;;;;-78
2022/12/11 22:56:09;;;;;;;;;;;;;;;0.26;94.13672;101193.4;;;;-76
2022/12/11 23:00:51;;;;;;;19;7.3;;;;;;;;;;;;;-76
2022/12/11 23:01:16;;;;;;;;;;;;;;;0.22;94.55664;101189.5;;;;-77
2022/12/11 23:05:50;;;;;;;;;;;;;;;0.24;94.56348;101192.2;;;;-76
2022/12/11 23:11:22;;;;;;;;;;;;;;;0.35;94.28613;101200.4;;;;-75
2022/12/11 23:24:31;;;;;;;;;;;;;;;0.35;94.61914;101192.3;;;;-78
2022/12/11 23:27:44;;;;;;;;;;;;;;;0.26;94.6123;101197;;;;-76
2022/12/11 23:30:47;;;;;;;17.3;7.2;;;;;;;;;;;;;-75
2022/12/11 23:32:46;;;;;;;;;;;;;;;0.3;94.39453;101201.1;;;;-76
2022/12/11 23:37:37;;;;;;;;;;;;;;;0.29;94.60742;101194.8;;;;-77
2022/12/11 23:42:37;;;;;;;;;;;;;;;0.31;94.70801;101187.1;;;;-77
2022/12/11 23:47:37;;;;;;;;;;;;;;;0.3;94.7168;101192.2;;;;-77
2022/12/11 23:52:37;;;;;;;;;;;;;;;0.31;94.68457;101190;;;;-76
2022/12/11 23:57:37;;;;;;;;;;;;;;;0.31;94.64355;101186.8;;;;-76
